sensor_id;sensor_type;location;lat;lon;timestamp;temperature;humidity
4429;DHT22;2227;47.810;8.810;2023-02-18T00:00:19;11.60;99.90
4429;DHT22;2227;47.810;8.810;2023-02-18T00:02:47;11.60;99.90
4429;DHT22;2227;47.810;8.810;2023-02-18T00:05:18;11.50;99.90
4429;DHT22;2227;47.810;8.810;2023-02-18T00:07:44;11.50;99.90
4429;DHT22;2227;47.810;8.810;2023-02-18T00:10:13;11.50;99.90
4429;DHT22;2227;47.810;8.810;2023-02-18T00:12:41;11.40;99.90
4429;DHT22;2227;47.810;8.810;2023-02-18T00:15:08;11.50;99.90
4429;DHT22;2227;47.810;8.810;2023-02-18T00:17:35;11.70;99.90
4429;DHT22;2227;47.810;8.810;2023-02-18T00:20:03;11.60;99.90
4429;DHT22;2227;47.810;8.810;2023-02-18T00:22:30;11.50;99.90
4429;DHT22;2227;47.810;8.810;2023-02-18T00:24:57;11.60;99.90
4429;DHT22;2227;47.810;8.810;2023-02-18T00:27:24;11.60;99.90
4429;DHT22;2227;47.810;8.810;2023-02-18T00:29:50;11.50;99.90
4429;DHT22;2227;47.810;8.810;2023-02-18T05:31:51;11.50;99.90
4429;DHT22;2227;47.810;8.810;2023-02-18T05:34:18;11.50;99.90
4429;DHT22;2227;47.810;8.810;2023-02-18T05:36:45;11.30;99.90
4429;DHT22;2227;47.810;8.810;2023-02-18T05:39:12;11.50;99.90
4429;DHT22;2227;47.810;8.810;2023-02-18T05:41:38;11.60;99.90
4429;DHT22;2227;47.810;8.810;2023-02-18T05:44:05;11.70;99.90
4429;DHT22;2227;47.810;8.810;2023-02-18T05:46:50;11.50;99.90
4429;DHT22;2227;47.810;8.810;2023-02-18T05:49:17;11.70;99.90
4429;DHT22;2227;47.810;8.810;2023-02-18T05:51:44;11.70;99.90
4429;DHT22;2227;47.810;8.810;2023-02-18T05:54:11;11.50;99.90
4429;DHT22;2227;47.810;8.810;2023-02-18T05:56:38;11.60;99.90
4429;DHT22;2227;47.810;8.810;2023-02-18T05:59:04;11.70;99.90
4429;DHT22;2227;47.810;8.810;2023-02-18T06:01:31;11.70;99.90
4429;DHT22;2227;47.810;8.810;2023-02-18T06:03:58;11.50;99.90
4429;DHT22;2227;47.810;8.810;2023-02-18T06:06:25;11.40;99.90
4429;DHT22;2227;47.810;8.810;2023-02-18T06:08:51;11.50;99.90
4429;DHT22;2227;47.810;8.810;2023-02-18T06:11:18;11.40;99.90
4429;DHT22;2227;47.810;8.810;2023-02-18T06:13:45;11.50;99.90
4429;DHT22;2227;47.810;8.810;2023-02-18T06:16:11;11.50;99.90
4429;DHT22;2227;47.810;8.810;2023-02-18T06:18:39;11.30;99.90
4429;DHT22;2227;47.810;8.810;2023-02-18T06:21:06;11.20;99.90
4429;DHT22;2227;47.810;8.810;2023-02-18T06:23:32;11.30;99.90
4429;DHT22;2227;47.810;8.810;2023-02-18T06:25:59;11.10;99.90
4429;DHT22;2227;47.810;8.810;2023-02-18T06:28:26;11.20;99.90
4429;DHT22;2227;47.810;8.810;2023-02-18T06:30:52;11.20;99.90
4429;DHT22;2227;47.810;8.810;2023-02-18T06:33:19;11.30;99.90
4429;DHT22;2227;47.810;8.810;2023-02-18T06:36:00;11.30;99.90
4429;DHT22;2227;47.810;8.810;2023-02-18T06:38:27;11.20;99.90
4429;DHT22;2227;47.810;8.810;2023-02-18T06:40:54;11.30;99.90
4429;DHT22;2227;47.810;8.810;2023-02-18T06:43:21;11.60;99.90
4429;DHT22;2227;47.810;8.810;2023-02-18T06:45:48;11.80;99.90
4429;DHT22;2227;47.810;8.810;2023-02-18T06:48:15;11.90;99.90
4429;DHT22;2227;47.810;8.810;2023-02-18T06:50:42;11.90;99.90
4429;DHT22;2227;47.810;8.810;2023-02-18T06:53:10;12.10;99.90
4429;DHT22;2227;47.810;8.810;2023-02-18T06:55:37;12.20;99.90
4429;DHT22;2227;47.810;8.810;2023-02-18T06:58:04;12.20;99.90
4429;DHT22;2227;47.810;8.810;2023-02-18T07:00:31;12.40;99.90
4429;DHT22;2227;47.810;8.810;2023-02-18T07:02:58;12.30;99.90
4429;DHT22;2227;47.810;8.810;2023-02-18T07:05:25;12.30;99.90
4429;DHT22;2227;47.810;8.810;2023-02-18T07:07:51;12.00;99.90
4429;DHT22;2227;47.810;8.810;2023-02-18T07:10:18;11.80;99.90
4429;DHT22;2227;47.810;8.810;2023-02-18T07:12:45;11.60;99.90
4429;DHT22;2227;47.810;8.810;2023-02-18T07:15:12;11.70;99.90
4429;DHT22;2227;47.810;8.810;2023-02-18T07:17:39;11.70;99.90
4429;DHT22;2227;47.810;8.810;2023-02-18T07:20:06;11.50;99.90
4429;DHT22;2227;47.810;8.810;2023-02-18T07:22:33;11.50;99.90
4429;DHT22;2227;47.810;8.810;2023-02-18T07:25:00;11.50;99.90
4429;DHT22;2227;47.810;8.810;2023-02-18T07:27:26;11.30;99.90
4429;DHT22;2227;47.810;8.810;2023-02-18T07:29:53;11.50;99.90
4429;DHT22;2227;47.810;8.810;2023-02-18T07:32:21;11.50;99.90
4429;DHT22;2227;47.810;8.810;2023-02-18T07:34:50;11.70;99.90
4429;DHT22;2227;47.810;8.810;2023-02-18T07:37:19;11.70;99.90
4429;DHT22;2227;47.810;8.810;2023-02-18T07:39:45;11.60;99.90
4429;DHT22;2227;47.810;8.810;2023-02-18T07:42:13;11.80;99.90
4429;DHT22;2227;47.810;8.810;2023-02-18T07:44:40;11.70;99.90
4429;DHT22;2227;47.810;8.810;2023-02-18T07:47:09;11.70;99.90
4429;DHT22;2227;47.810;8.810;2023-02-18T07:49:37;11.60;99.90
4429;DHT22;2227;47.810;8.810;2023-02-18T07:52:04;11.40;99.90
4429;DHT22;2227;47.810;8.810;2023-02-18T07:54:31;11.50;99.90
4429;DHT22;2227;47.810;8.810;2023-02-18T07:56:58;11.40;99.90
4429;DHT22;2227;47.810;8.810;2023-02-18T07:59:24;11.40;99.90
4429;DHT22;2227;47.810;8.810;2023-02-18T08:01:51;11.30;99.90
4429;DHT22;2227;47.810;8.810;2023-02-18T08:04:18;11.20;99.90
4429;DHT22;2227;47.810;8.810;2023-02-18T08:06:46;11.40;99.90
4429;DHT22;2227;47.810;8.810;2023-02-18T08:09:16;11.50;99.90
4429;DHT22;2227;47.810;8.810;2023-02-18T08:11:43;11.40;99.90
4429;DHT22;2227;47.810;8.810;2023-02-18T08:14:10;11.50;99.90
4429;DHT22;2227;47.810;8.810;2023-02-18T08:16:36;11.80;99.90
4429;DHT22;2227;47.810;8.810;2023-02-18T08:19:03;11.80;99.90
4429;DHT22;2227;47.810;8.810;2023-02-18T08:21:30;11.90;99.90
4429;DHT22;2227;47.810;8.810;2023-02-18T08:23:58;12.10;99.90
4429;DHT22;2227;47.810;8.810;2023-02-18T08:26:25;12.20;99.90
4429;DHT22;2227;47.810;8.810;2023-02-18T08:28:52;12.10;99.90
4429;DHT22;2227;47.810;8.810;2023-02-18T08:31:22;12.30;99.90
4429;DHT22;2227;47.810;8.810;2023-02-18T08:33:49;12.30;99.90
4429;DHT22;2227;47.810;8.810;2023-02-18T08:36:17;12.20;99.90
4429;DHT22;2227;47.810;8.810;2023-02-18T08:38:43;11.90;99.90
4429;DHT22;2227;47.810;8.810;2023-02-18T08:41:10;12.10;99.90
4429;DHT22;2227;47.810;8.810;2023-02-18T08:43:37;12.10;99.90
4429;DHT22;2227;47.810;8.810;2023-02-18T08:46:04;11.90;99.90
4429;DHT22;2227;47.810;8.810;2023-02-18T08:48:32;11.70;99.90
4429;DHT22;2227;47.810;8.810;2023-02-18T08:50:59;11.80;99.90
4429;DHT22;2227;47.810;8.810;2023-02-18T08:53:25;11.80;99.90
4429;DHT22;2227;47.810;8.810;2023-02-18T08:55:52;11.80;99.90
4429;DHT22;2227;47.810;8.810;2023-02-18T08:58:19;11.80;99.90
4429;DHT22;2227;47.810;8.810;2023-02-18T09:00:46;11.90;99.90
4429;DHT22;2227;47.810;8.810;2023-02-18T09:03:14;11.80;99.90
4429;DHT22;2227;47.810;8.810;2023-02-18T09:05:41;12.10;99.90
4429;DHT22;2227;47.810;8.810;2023-02-18T09:08:08;12.30;99.90
4429;DHT22;2227;47.810;8.810;2023-02-18T09:10:35;12.40;99.90
4429;DHT22;2227;47.810;8.810;2023-02-18T09:13:01;12.60;99.90
4429;DHT22;2227;47.810;8.810;2023-02-18T09:15:28;12.40;99.90
4429;DHT22;2227;47.810;8.810;2023-02-18T09:17:57;12.60;99.90
4429;DHT22;2227;47.810;8.810;2023-02-18T09:20:25;12.50;99.90
4429;DHT22;2227;47.810;8.810;2023-02-18T09:22:52;12.70;99.90
4429;DHT22;2227;47.810;8.810;2023-02-18T09:25:19;12.60;99.90
4429;DHT22;2227;47.810;8.810;2023-02-18T09:27:46;12.90;99.90
4429;DHT22;2227;47.810;8.810;2023-02-18T09:30:12;13.10;99.90
4429;DHT22;2227;47.810;8.810;2023-02-18T09:32:39;13.10;99.90
4429;DHT22;2227;47.810;8.810;2023-02-18T09:35:06;13.10;99.90
4429;DHT22;2227;47.810;8.810;2023-02-18T09:37:33;12.90;99.90
4429;DHT22;2227;47.810;8.810;2023-02-18T09:40:00;13.10;99.90
4429;DHT22;2227;47.810;8.810;2023-02-18T09:42:31;13.30;99.90
4429;DHT22;2227;47.810;8.810;2023-02-18T09:45:03;13.00;99.90
4429;DHT22;2227;47.810;8.810;2023-02-18T09:47:40;13.00;99.90
4429;DHT22;2227;47.810;8.810;2023-02-18T09:52:38;12.90;99.90
4429;DHT22;2227;47.810;8.810;2023-02-18T09:57:50;12.80;99.90
4429;DHT22;2227;47.810;8.810;2023-02-18T10:00:26;12.80;99.90
4429;DHT22;2227;47.810;8.810;2023-02-18T10:05:27;13.10;99.90
4429;DHT22;2227;47.810;8.810;2023-02-18T10:08:04;12.80;99.90
4429;DHT22;2227;47.810;8.810;2023-02-18T10:10:43;12.80;99.90
4429;DHT22;2227;47.810;8.810;2023-02-18T10:13:23;12.80;99.90
4429;DHT22;2227;47.810;8.810;2023-02-18T10:15:50;13.10;99.90
4429;DHT22;2227;47.810;8.810;2023-02-18T10:18:25;13.20;99.90
4429;DHT22;2227;47.810;8.810;2023-02-18T10:20:59;13.10;99.90
4429;DHT22;2227;47.810;8.810;2023-02-18T10:23:28;13.20;99.90
4429;DHT22;2227;47.810;8.810;2023-02-18T10:25:57;13.40;99.90
4429;DHT22;2227;47.810;8.810;2023-02-18T10:28:26;13.60;99.90
4429;DHT22;2227;47.810;8.810;2023-02-18T10:30:58;13.60;99.90
4429;DHT22;2227;47.810;8.810;2023-02-18T10:50:15;13.80;99.90
4429;DHT22;2227;47.810;8.810;2023-02-18T10:52:46;13.90;99.90
4429;DHT22;2227;47.810;8.810;2023-02-18T10:55:16;14.20;99.90
4429;DHT22;2227;47.810;8.810;2023-02-18T10:57:52;14.60;99.90
4429;DHT22;2227;47.810;8.810;2023-02-18T11:00:24;14.60;99.90
4429;DHT22;2227;47.810;8.810;2023-02-18T11:03:10;14.40;99.90
4429;DHT22;2227;47.810;8.810;2023-02-18T11:05:38;14.30;99.90
4429;DHT22;2227;47.810;8.810;2023-02-18T11:08:17;14.20;99.90
4429;DHT22;2227;47.810;8.810;2023-02-18T11:10:46;14.30;99.90
4429;DHT22;2227;47.810;8.810;2023-02-18T11:13:16;14.30;99.90
4429;DHT22;2227;47.810;8.810;2023-02-18T11:15:56;14.20;99.90
4429;DHT22;2227;47.810;8.810;2023-02-18T11:19:00;14.10;99.90
4429;DHT22;2227;47.810;8.810;2023-02-18T11:21:30;14.10;99.90
4429;DHT22;2227;47.810;8.810;2023-02-18T11:24:06;14.30;99.90
4429;DHT22;2227;47.810;8.810;2023-02-18T11:26:35;14.10;99.90
4429;DHT22;2227;47.810;8.810;2023-02-18T11:29:23;14.20;99.90
4429;DHT22;2227;47.810;8.810;2023-02-18T11:31:53;14.10;99.90
4429;DHT22;2227;47.810;8.810;2023-02-18T11:34:30;14.00;99.90
4429;DHT22;2227;47.810;8.810;2023-02-18T11:37:10;13.90;99.90
4429;DHT22;2227;47.810;8.810;2023-02-18T11:39:42;13.80;99.90
4429;DHT22;2227;47.810;8.810;2023-02-18T11:42:13;13.70;99.90
4429;DHT22;2227;47.810;8.810;2023-02-18T11:44:47;13.70;99.90
4429;DHT22;2227;47.810;8.810;2023-02-18T11:49:42;13.90;99.90
4429;DHT22;2227;47.810;8.810;2023-02-18T11:52:28;13.90;99.90
4429;DHT22;2227;47.810;8.810;2023-02-18T11:57:29;13.90;99.90
4429;DHT22;2227;47.810;8.810;2023-02-18T11:59:59;13.90;99.90
4429;DHT22;2227;47.810;8.810;2023-02-18T12:02:33;13.90;99.90
4429;DHT22;2227;47.810;8.810;2023-02-18T12:05:11;14.10;99.90
4429;DHT22;2227;47.810;8.810;2023-02-18T12:07:45;14.10;99.90
4429;DHT22;2227;47.810;8.810;2023-02-18T12:10:34;14.10;99.90
4429;DHT22;2227;47.810;8.810;2023-02-18T12:21:39;14.00;99.90
4429;DHT22;2227;47.810;8.810;2023-02-18T12:35:51;14.10;99.90
4429;DHT22;2227;47.810;8.810;2023-02-18T12:38:41;14.20;99.90
4429;DHT22;2227;47.810;8.810;2023-02-18T12:41:45;14.30;99.90
4429;DHT22;2227;47.810;8.810;2023-02-18T12:58:22;14.50;99.90
4429;DHT22;2227;47.810;8.810;2023-02-18T13:17:40;15.00;99.90
4429;DHT22;2227;47.810;8.810;2023-02-18T13:20:32;15.30;99.90
4429;DHT22;2227;47.810;8.810;2023-02-18T13:23:01;15.40;99.90
4429;DHT22;2227;47.810;8.810;2023-02-18T13:25:34;15.30;99.90
4429;DHT22;2227;47.810;8.810;2023-02-18T13:28:37;15.30;99.90
4429;DHT22;2227;47.810;8.810;2023-02-18T13:31:21;15.30;99.90
4429;DHT22;2227;47.810;8.810;2023-02-18T13:39:58;15.30;99.90
4429;DHT22;2227;47.810;8.810;2023-02-18T13:42:32;15.30;99.90
4429;DHT22;2227;47.810;8.810;2023-02-18T13:47:39;15.30;99.90
4429;DHT22;2227;47.810;8.810;2023-02-18T13:53:12;15.30;99.90
4429;DHT22;2227;47.810;8.810;2023-02-18T13:58:44;15.50;99.90
4429;DHT22;2227;47.810;8.810;2023-02-18T14:01:24;15.80;99.90
4429;DHT22;2227;47.810;8.810;2023-02-18T14:03:57;16.10;99.90
4429;DHT22;2227;47.810;8.810;2023-02-18T14:11:57;15.80;99.90
4429;DHT22;2227;47.810;8.810;2023-02-18T14:14:40;15.80;99.90
4429;DHT22;2227;47.810;8.810;2023-02-18T14:22:27;15.40;99.90
4429;DHT22;2227;47.810;8.810;2023-02-18T14:27:38;15.60;99.90
4429;DHT22;2227;47.810;8.810;2023-02-18T14:30:15;15.70;99.90
4429;DHT22;2227;47.810;8.810;2023-02-18T14:32:44;15.60;99.90
4429;DHT22;2227;47.810;8.810;2023-02-18T14:35:34;15.40;99.90
4429;DHT22;2227;47.810;8.810;2023-02-18T14:46:43;15.50;99.90
4429;DHT22;2227;47.810;8.810;2023-02-18T14:49:27;15.30;99.90
4429;DHT22;2227;47.810;8.810;2023-02-18T14:51:58;15.30;99.90
4429;DHT22;2227;47.810;8.810;2023-02-18T14:54:25;15.30;99.90
4429;DHT22;2227;47.810;8.810;2023-02-18T14:57:07;15.00;99.90
4429;DHT22;2227;47.810;8.810;2023-02-18T14:59:40;14.80;99.90
4429;DHT22;2227;47.810;8.810;2023-02-18T15:02:22;14.80;99.90
4429;DHT22;2227;47.810;8.810;2023-02-18T15:04:50;14.70;99.90
4429;DHT22;2227;47.810;8.810;2023-02-18T15:07:20;14.90;99.90
4429;DHT22;2227;47.810;8.810;2023-02-18T15:09:52;14.90;99.90
4429;DHT22;2227;47.810;8.810;2023-02-18T15:12:21;15.00;99.90
4429;DHT22;2227;47.810;8.810;2023-02-18T15:14:52;15.30;99.90
4429;DHT22;2227;47.810;8.810;2023-02-18T15:17:24;15.40;99.90
4429;DHT22;2227;47.810;8.810;2023-02-18T15:19:58;15.30;99.90
4429;DHT22;2227;47.810;8.810;2023-02-18T15:22:31;15.30;99.90
4429;DHT22;2227;47.810;8.810;2023-02-18T15:24:59;15.30;99.90
4429;DHT22;2227;47.810;8.810;2023-02-18T15:27:31;15.10;99.90
4429;DHT22;2227;47.810;8.810;2023-02-18T15:32:56;15.10;99.90
4429;DHT22;2227;47.810;8.810;2023-02-18T15:35:26;14.90;99.90
4429;DHT22;2227;47.810;8.810;2023-02-18T15:37:57;15.10;99.90
4429;DHT22;2227;47.810;8.810;2023-02-18T15:40:33;14.90;99.90
4429;DHT22;2227;47.810;8.810;2023-02-18T15:43:02;15.00;99.90
4429;DHT22;2227;47.810;8.810;2023-02-18T15:45:33;15.00;99.90
4429;DHT22;2227;47.810;8.810;2023-02-18T15:48:01;14.80;99.90
4429;DHT22;2227;47.810;8.810;2023-02-18T15:50:34;14.60;99.90
4429;DHT22;2227;47.810;8.810;2023-02-18T15:53:07;14.40;99.90
4429;DHT22;2227;47.810;8.810;2023-02-18T15:55:36;14.40;99.90
4429;DHT22;2227;47.810;8.810;2023-02-18T15:58:07;14.30;99.90
4429;DHT22;2227;47.810;8.810;2023-02-18T16:00:46;14.40;99.90
4429;DHT22;2227;47.810;8.810;2023-02-18T16:03:29;14.50;99.90
4429;DHT22;2227;47.810;8.810;2023-02-18T16:11:34;14.40;99.90
4429;DHT22;2227;47.810;8.810;2023-02-18T16:14:01;14.50;99.90
4429;DHT22;2227;47.810;8.810;2023-02-18T16:16:30;14.30;99.90
4429;DHT22;2227;47.810;8.810;2023-02-18T16:18:59;14.30;99.90
4429;DHT22;2227;47.810;8.810;2023-02-18T16:21:37;14.10;99.90
4429;DHT22;2227;47.810;8.810;2023-02-18T16:24:27;14.00;99.90
4429;DHT22;2227;47.810;8.810;2023-02-18T16:26:57;13.80;99.90
4429;DHT22;2227;47.810;8.810;2023-02-18T16:31:58;13.80;99.90
4429;DHT22;2227;47.810;8.810;2023-02-18T16:34:25;13.70;99.90
4429;DHT22;2227;47.810;8.810;2023-02-18T16:36:53;13.60;99.90
4429;DHT22;2227;47.810;8.810;2023-02-18T16:39:38;13.40;99.90
4429;DHT22;2227;47.810;8.810;2023-02-18T16:42:10;13.50;99.90
4429;DHT22;2227;47.810;8.810;2023-02-18T16:44:37;13.40;99.90
4429;DHT22;2227;47.810;8.810;2023-02-18T16:47:04;13.40;99.90
4429;DHT22;2227;47.810;8.810;2023-02-18T16:49:32;13.20;99.90
4429;DHT22;2227;47.810;8.810;2023-02-18T16:52:04;13.20;99.90
4429;DHT22;2227;47.810;8.810;2023-02-18T16:54:31;13.20;99.90
4429;DHT22;2227;47.810;8.810;2023-02-18T16:56:58;13.10;99.90
4429;DHT22;2227;47.810;8.810;2023-02-18T16:59:24;13.00;99.90
4429;DHT22;2227;47.810;8.810;2023-02-18T17:01:51;13.10;99.90
4429;DHT22;2227;47.810;8.810;2023-02-18T17:04:18;13.10;99.90
4429;DHT22;2227;47.810;8.810;2023-02-18T17:06:45;12.80;99.90
4429;DHT22;2227;47.810;8.810;2023-02-18T17:09:18;12.80;99.90
4429;DHT22;2227;47.810;8.810;2023-02-18T17:11:51;12.70;99.90
4429;DHT22;2227;47.810;8.810;2023-02-18T17:14:21;12.80;99.90
4429;DHT22;2227;47.810;8.810;2023-02-18T17:16:50;12.80;99.90
4429;DHT22;2227;47.810;8.810;2023-02-18T17:19:17;12.70;99.90
4429;DHT22;2227;47.810;8.810;2023-02-18T17:21:44;12.70;99.90
4429;DHT22;2227;47.810;8.810;2023-02-18T17:24:15;12.60;99.90
4429;DHT22;2227;47.810;8.810;2023-02-18T17:26:43;12.60;99.90
4429;DHT22;2227;47.810;8.810;2023-02-18T17:29:09;12.70;99.90
4429;DHT22;2227;47.810;8.810;2023-02-18T17:31:38;12.60;99.90
4429;DHT22;2227;47.810;8.810;2023-02-18T17:34:09;12.60;99.90
4429;DHT22;2227;47.810;8.810;2023-02-18T17:36:37;12.60;99.90
4429;DHT22;2227;47.810;8.810;2023-02-18T17:39:12;12.60;99.90
4429;DHT22;2227;47.810;8.810;2023-02-18T17:41:40;12.60;99.90
4429;DHT22;2227;47.810;8.810;2023-02-18T17:44:19;12.60;99.90
4429;DHT22;2227;47.810;8.810;2023-02-18T17:46:46;12.70;99.90
4429;DHT22;2227;47.810;8.810;2023-02-18T17:49:15;12.60;99.90
4429;DHT22;2227;47.810;8.810;2023-02-18T17:51:42;12.50;99.90
4429;DHT22;2227;47.810;8.810;2023-02-18T17:54:15;12.50;99.90
4429;DHT22;2227;47.810;8.810;2023-02-18T17:56:42;12.50;99.90
4429;DHT22;2227;47.810;8.810;2023-02-18T17:59:09;12.50;99.90
4429;DHT22;2227;47.810;8.810;2023-02-18T18:01:37;12.40;99.90
4429;DHT22;2227;47.810;8.810;2023-02-18T18:04:09;12.30;99.90
4429;DHT22;2227;47.810;8.810;2023-02-18T18:06:37;12.40;99.90
4429;DHT22;2227;47.810;8.810;2023-02-18T18:09:03;12.40;99.90
4429;DHT22;2227;47.810;8.810;2023-02-18T18:11:30;12.50;99.90
4429;DHT22;2227;47.810;8.810;2023-02-18T18:13:58;12.50;99.90
4429;DHT22;2227;47.810;8.810;2023-02-18T18:16:25;12.50;99.90
4429;DHT22;2227;47.810;8.810;2023-02-18T18:18:52;12.60;99.90
4429;DHT22;2227;47.810;8.810;2023-02-18T18:21:37;12.60;99.90
4429;DHT22;2227;47.810;8.810;2023-02-18T18:24:03;12.60;99.90
4429;DHT22;2227;47.810;8.810;2023-02-18T18:26:30;12.70;99.90
4429;DHT22;2227;47.810;8.810;2023-02-18T18:28:57;12.70;99.90
4429;DHT22;2227;47.810;8.810;2023-02-18T18:31:24;12.80;99.90
4429;DHT22;2227;47.810;8.810;2023-02-18T18:33:51;12.90;99.90
4429;DHT22;2227;47.810;8.810;2023-02-18T18:36:20;13.10;99.90
4429;DHT22;2227;47.810;8.810;2023-02-18T18:38:47;13.00;99.90
4429;DHT22;2227;47.810;8.810;2023-02-18T18:41:16;12.90;99.90
4429;DHT22;2227;47.810;8.810;2023-02-18T18:43:43;12.90;99.90
4429;DHT22;2227;47.810;8.810;2023-02-18T18:46:10;13.00;99.90
4429;DHT22;2227;47.810;8.810;2023-02-18T18:48:37;13.00;99.90
4429;DHT22;2227;47.810;8.810;2023-02-18T18:51:04;13.10;99.90
4429;DHT22;2227;47.810;8.810;2023-02-18T18:53:33;13.00;99.90
4429;DHT22;2227;47.810;8.810;2023-02-18T18:56:03;12.60;99.90
4429;DHT22;2227;47.810;8.810;2023-02-18T18:58:30;12.60;99.90
4429;DHT22;2227;47.810;8.810;2023-02-18T19:01:00;12.80;99.90
4429;DHT22;2227;47.810;8.810;2023-02-18T19:03:28;12.60;99.90
4429;DHT22;2227;47.810;8.810;2023-02-18T19:05:56;12.70;99.90
4429;DHT22;2227;47.810;8.810;2023-02-18T19:08:23;12.80;99.90
4429;DHT22;2227;47.810;8.810;2023-02-18T19:10:54;13.00;99.90
4429;DHT22;2227;47.810;8.810;2023-02-18T19:13:30;13.00;99.90
4429;DHT22;2227;47.810;8.810;2023-02-18T19:16:12;13.00;99.90
4429;DHT22;2227;47.810;8.810;2023-02-18T19:18:40;12.90;99.90
4429;DHT22;2227;47.810;8.810;2023-02-18T19:21:06;13.00;99.90
4429;DHT22;2227;47.810;8.810;2023-02-18T19:23:34;13.00;99.90
4429;DHT22;2227;47.810;8.810;2023-02-18T19:26:02;12.90;99.90
4429;DHT22;2227;47.810;8.810;2023-02-18T19:28:29;12.80;99.90
4429;DHT22;2227;47.810;8.810;2023-02-18T19:30:55;12.80;99.90
4429;DHT22;2227;47.810;8.810;2023-02-18T19:33:23;12.70;99.90
4429;DHT22;2227;47.810;8.810;2023-02-18T19:35:49;12.70;99.90
4429;DHT22;2227;47.810;8.810;2023-02-18T19:38:17;12.60;99.90
4429;DHT22;2227;47.810;8.810;2023-02-18T19:40:45;12.50;99.90
4429;DHT22;2227;47.810;8.810;2023-02-18T19:43:12;12.40;99.90
4429;DHT22;2227;47.810;8.810;2023-02-18T19:45:41;12.20;99.90
4429;DHT22;2227;47.810;8.810;2023-02-18T19:48:09;12.00;99.90
4429;DHT22;2227;47.810;8.810;2023-02-18T19:50:35;11.80;99.90
4429;DHT22;2227;47.810;8.810;2023-02-18T19:53:02;11.80;99.90
4429;DHT22;2227;47.810;8.810;2023-02-18T19:55:29;11.70;99.90
4429;DHT22;2227;47.810;8.810;2023-02-18T19:57:55;11.60;99.90
4429;DHT22;2227;47.810;8.810;2023-02-18T20:00:22;11.60;99.90
4429;DHT22;2227;47.810;8.810;2023-02-18T20:02:49;11.60;99.90
4429;DHT22;2227;47.810;8.810;2023-02-18T20:05:16;11.40;99.90
4429;DHT22;2227;47.810;8.810;2023-02-18T20:07:43;11.40;99.90
4429;DHT22;2227;47.810;8.810;2023-02-18T20:10:16;11.40;99.90
4429;DHT22;2227;47.810;8.810;2023-02-18T20:12:47;11.40;99.90
4429;DHT22;2227;47.810;8.810;2023-02-18T20:15:16;11.40;99.90
4429;DHT22;2227;47.810;8.810;2023-02-18T20:17:42;11.20;99.90
4429;DHT22;2227;47.810;8.810;2023-02-18T20:20:09;11.10;99.90
4429;DHT22;2227;47.810;8.810;2023-02-18T20:22:36;11.10;99.90
4429;DHT22;2227;47.810;8.810;2023-02-18T20:25:03;11.00;99.90
4429;DHT22;2227;47.810;8.810;2023-02-18T20:27:29;11.00;99.90
4429;DHT22;2227;47.810;8.810;2023-02-18T20:29:57;10.90;99.90
4429;DHT22;2227;47.810;8.810;2023-02-18T20:32:23;10.70;99.90
4429;DHT22;2227;47.810;8.810;2023-02-18T20:34:50;10.80;99.90
4429;DHT22;2227;47.810;8.810;2023-02-18T20:37:17;10.90;99.90
4429;DHT22;2227;47.810;8.810;2023-02-18T20:39:43;10.90;99.90
4429;DHT22;2227;47.810;8.810;2023-02-18T20:42:10;11.00;99.90
4429;DHT22;2227;47.810;8.810;2023-02-18T20:44:46;11.10;99.90
4429;DHT22;2227;47.810;8.810;2023-02-18T20:47:14;11.00;99.90
4429;DHT22;2227;47.810;8.810;2023-02-18T20:49:41;11.10;99.90
4429;DHT22;2227;47.810;8.810;2023-02-18T20:52:09;11.00;99.90
4429;DHT22;2227;47.810;8.810;2023-02-18T20:54:35;11.10;99.90
4429;DHT22;2227;47.810;8.810;2023-02-18T20:57:02;11.20;99.90
4429;DHT22;2227;47.810;8.810;2023-02-18T20:59:29;11.20;99.90
4429;DHT22;2227;47.810;8.810;2023-02-18T21:01:58;11.30;99.90
4429;DHT22;2227;47.810;8.810;2023-02-18T21:04:25;11.30;99.90
4429;DHT22;2227;47.810;8.810;2023-02-18T21:06:52;11.00;99.90
4429;DHT22;2227;47.810;8.810;2023-02-18T21:09:19;11.00;99.90
4429;DHT22;2227;47.810;8.810;2023-02-18T21:11:46;10.90;99.90
4429;DHT22;2227;47.810;8.810;2023-02-18T21:14:13;11.00;99.90
4429;DHT22;2227;47.810;8.810;2023-02-18T21:16:40;11.00;99.90
4429;DHT22;2227;47.810;8.810;2023-02-18T21:19:11;11.00;99.90
4429;DHT22;2227;47.810;8.810;2023-02-18T21:21:38;10.90;99.90
4429;DHT22;2227;47.810;8.810;2023-02-18T21:24:05;11.00;99.90
4429;DHT22;2227;47.810;8.810;2023-02-18T21:26:32;11.00;99.90
4429;DHT22;2227;47.810;8.810;2023-02-18T21:29:00;11.10;99.90
4429;DHT22;2227;47.810;8.810;2023-02-18T21:31:32;11.10;99.90
4429;DHT22;2227;47.810;8.810;2023-02-18T21:34:00;11.10;99.90
4429;DHT22;2227;47.810;8.810;2023-02-18T21:36:29;11.10;99.90
4429;DHT22;2227;47.810;8.810;2023-02-18T21:38:58;11.00;99.90
4429;DHT22;2227;47.810;8.810;2023-02-18T21:41:26;11.00;99.90
4429;DHT22;2227;47.810;8.810;2023-02-18T21:43:53;10.90;99.90
4429;DHT22;2227;47.810;8.810;2023-02-18T21:46:23;11.00;99.90
4429;DHT22;2227;47.810;8.810;2023-02-18T21:48:50;10.90;99.90
4429;DHT22;2227;47.810;8.810;2023-02-18T21:51:38;10.90;99.90
4429;DHT22;2227;47.810;8.810;2023-02-18T21:54:36;10.90;99.90
4429;DHT22;2227;47.810;8.810;2023-02-18T21:57:10;10.90;99.90
4429;DHT22;2227;47.810;8.810;2023-02-18T21:59:37;10.80;99.90
4429;DHT22;2227;47.810;8.810;2023-02-18T22:02:04;10.80;99.90
4429;DHT22;2227;47.810;8.810;2023-02-18T22:04:34;10.80;99.90
4429;DHT22;2227;47.810;8.810;2023-02-18T22:07:01;10.80;99.90
4429;DHT22;2227;47.810;8.810;2023-02-18T22:09:28;10.80;99.90
4429;DHT22;2227;47.810;8.810;2023-02-18T22:11:55;10.70;99.90
4429;DHT22;2227;47.810;8.810;2023-02-18T22:14:22;10.70;99.90
4429;DHT22;2227;47.810;8.810;2023-02-18T22:16:50;10.70;99.90
4429;DHT22;2227;47.810;8.810;2023-02-18T22:19:17;10.70;99.90
4429;DHT22;2227;47.810;8.810;2023-02-18T22:21:44;10.60;99.90
4429;DHT22;2227;47.810;8.810;2023-02-18T22:24:12;10.60;99.90
4429;DHT22;2227;47.810;8.810;2023-02-18T22:26:39;10.50;99.90
4429;DHT22;2227;47.810;8.810;2023-02-18T22:29:06;10.50;99.90
4429;DHT22;2227;47.810;8.810;2023-02-18T22:31:33;10.40;99.90
4429;DHT22;2227;47.810;8.810;2023-02-18T22:34:00;10.30;99.90
4429;DHT22;2227;47.810;8.810;2023-02-18T22:36:27;10.30;99.90
4429;DHT22;2227;47.810;8.810;2023-02-18T22:38:54;10.30;99.90
4429;DHT22;2227;47.810;8.810;2023-02-18T22:41:23;10.20;99.90
4429;DHT22;2227;47.810;8.810;2023-02-18T22:43:58;10.10;99.90
4429;DHT22;2227;47.810;8.810;2023-02-18T22:46:26;9.90;99.90
4429;DHT22;2227;47.810;8.810;2023-02-18T22:48:54;9.80;99.90
4429;DHT22;2227;47.810;8.810;2023-02-18T22:51:24;9.80;99.90
4429;DHT22;2227;47.810;8.810;2023-02-18T22:53:52;9.90;99.90
4429;DHT22;2227;47.810;8.810;2023-02-18T22:56:20;9.70;99.90
4429;DHT22;2227;47.810;8.810;2023-02-18T22:58:49;9.60;99.90
4429;DHT22;2227;47.810;8.810;2023-02-18T23:01:37;9.70;99.90
4429;DHT22;2227;47.810;8.810;2023-02-18T23:04:10;9.70;99.90
4429;DHT22;2227;47.810;8.810;2023-02-18T23:06:38;9.70;99.90
4429;DHT22;2227;47.810;8.810;2023-02-18T23:09:07;9.70;99.90
4429;DHT22;2227;47.810;8.810;2023-02-18T23:11:34;9.90;99.90
4429;DHT22;2227;47.810;8.810;2023-02-18T23:14:00;9.90;99.90
4429;DHT22;2227;47.810;8.810;2023-02-18T23:16:49;10.10;99.90
4429;DHT22;2227;47.810;8.810;2023-02-18T23:19:36;10.30;99.90
4429;DHT22;2227;47.810;8.810;2023-02-18T23:22:03;10.10;99.90
4429;DHT22;2227;47.810;8.810;2023-02-18T23:24:32;10.20;99.90
4429;DHT22;2227;47.810;8.810;2023-02-18T23:26:59;10.20;99.90